Time;durP1;ratioP1;P1;durP2;ratioP2;P2;SDS_P1;SDS_P2;PMS_P1;PMS_P2;Temp;Humidity;BMP_temperature;BMP_pressure;BME280_temperature;BME280_humidity;BME280_pressure;Samples;Min_cycle;Max_cycle;Signal;HPM_P1;HPM_P2
2024/04/07 00:01:50;;;;;;;7.85;2.35;;;17.50;1.00;;;;;;4931118;28;39480;-89
2024/04/07 00:04:16;;;;;;;6.97;2.10;;;17.50;1.00;;;;;;4908316;28;38804;-90
2024/04/07 00:06:42;;;;;;;6.47;1.90;;;17.50;1.00;;;;;;4910045;29;38760;-90
2024/04/07 00:09:08;;;;;;;7.30;2.05;;;17.50;1.00;;;;;;4910928;29;39415;-88
2024/04/07 00:11:35;;;;;;;8.38;1.48;;;17.50;1.00;;;;;;4909731;29;38821;-88
2024/04/07 00:14:01;;;;;;;6.72;1.65;;;17.50;1.00;;;;;;4908634;29;36665;-90
2024/04/07 00:16:27;;;;;;;3.55;1.40;;;17.50;1.00;;;;;;4906250;28;47573;-89
2024/04/07 00:18:54;;;;;;;3.58;1.40;;;17.40;1.00;;;;;;4904225;29;39607;-89
2024/04/07 00:21:20;;;;;;;6.60;1.50;;;17.30;1.00;;;;;;4911249;29;38623;-90
2024/04/07 00:23:46;;;;;;;5.97;1.50;;;17.10;1.00;;;;;;4913958;29;38447;-90
2024/04/07 00:26:12;;;;;;;5.53;1.58;;;17.00;1.00;;;;;;4909772;29;36241;-89
2024/04/07 00:28:39;;;;;;;5.20;1.42;;;16.90;1.00;;;;;;4916211;28;38492;-90
2024/04/07 00:31:05;;;;;;;4.75;1.65;;;16.80;1.00;;;;;;4909433;28;39046;-90
2024/04/07 00:33:31;;;;;;;8.20;2.03;;;16.70;1.00;;;;;;4910487;29;38381;-89
2024/04/07 00:36:01;;;;;;;7.30;1.88;;;16.60;1.00;;;;;;4909089;29;37570;-88
2024/04/07 00:38:29;;;;;;;7.38;1.90;;;16.50;1.00;;;;;;4908896;29;47025;-89
2024/04/07 00:41:00;;;;;;;11.32;1.98;;;16.40;1.00;;;;;;4910994;29;37334;-90
2024/04/07 00:43:27;;;;;;;9.55;2.13;;;16.30;1.00;;;;;;4925340;28;38256;-89
2024/04/07 00:45:54;;;;;;;8.00;1.80;;;16.20;1.00;;;;;;4910433;29;37764;-89
2024/04/07 00:48:21;;;;;;;8.65;2.40;;;16.10;1.00;;;;;;4907494;28;38652;-89
2024/04/07 00:50:49;;;;;;;8.55;2.30;;;16.00;1.00;;;;;;4912329;28;38470;-89
2024/04/07 00:53:16;;;;;;;11.85;2.67;;;15.80;1.30;;;;;;4911306;28;36709;-88
2024/04/07 00:55:44;;;;;;;8.13;2.45;;;15.70;14.30;;;;;;4910935;29;37752;-86
2024/04/07 00:58:16;;;;;;;14.48;2.50;;;15.60;24.10;;;;;;4924660;28;39710;-90
2024/04/07 02:08:39;;;;;;;8.25;2.08;;;14.40;99.90;;;;;;5382142;23;20050;-81
2024/04/07 02:11:15;;;;;;;6.72;1.50;;;14.40;99.90;;;;;;4978990;28;38428;-81
2024/04/07 02:13:43;;;;;;;6.32;1.40;;;14.40;99.90;;;;;;4967687;28;37868;-80
2024/04/07 02:16:10;;;;;;;4.22;1.45;;;14.50;99.90;;;;;;4979343;28;37178;-81
2024/04/07 02:18:45;;;;;;;4.45;1.52;;;14.50;99.90;;;;;;4979747;28;38910;-81
2024/04/07 02:21:18;;;;;;;3.85;1.48;;;14.50;99.90;;;;;;4978758;28;40283;-81
2024/04/07 02:23:58;;;;;;;6.20;1.10;;;14.50;97.20;;;;;;4979345;28;38438;-81
2024/04/07 02:27:03;;;;;;;5.70;1.50;;;14.50;95.80;;;;;;4978185;28;36614;-82
2024/04/07 02:37:18;;;;;;;3.70;1.27;;;14.60;66.40;;;;;;6059746;23;20022;-80
2024/04/07 02:39:44;;;;;;;3.22;0.90;;;14.60;49.80;;;;;;4976416;28;37921;-81
2024/04/07 02:42:15;;;;;;;5.43;1.25;;;14.60;37.20;;;;;;4983871;28;39812;-81
2024/04/07 02:50:19;;;;;;;4.88;1.00;;;14.70;22.20;;;;;;4977482;28;40570;-81
2024/04/07 02:52:55;;;;;;;5.55;0.80;;;14.70;14.80;;;;;;4978678;28;39667;-81
2024/04/07 02:55:21;;;;;;;5.28;1.13;;;14.80;2.70;;;;;;4978029;28;39263;-80
2024/04/07 02:57:47;;;;;;;4.82;0.93;;;14.80;1.00;;;;;;4968532;28;37901;-81
2024/04/07 03:00:14;;;;;;;4.07;1.00;;;14.80;1.00;;;;;;5119604;23;38528;-80
2024/04/07 03:02:46;;;;;;;4.95;0.90;;;14.80;1.00;;;;;;4977775;28;38456;-81
2024/04/07 03:05:13;;;;;;;1.25;0.73;;;14.90;1.00;;;;;;4978772;28;37091;-78
2024/04/07 03:07:40;;;;;;;2.25;0.73;;;14.90;1.00;;;;;;4983994;28;37651;-80
2024/04/07 03:10:06;;;;;;;3.33;0.70;;;14.80;1.00;;;;;;4976053;28;41591;-80
2024/04/07 03:12:38;;;;;;;3.03;1.00;;;14.80;1.00;;;;;;4976332;28;37740;-81
2024/04/07 03:15:06;;;;;;;3.92;0.90;;;14.60;15.70;;;;;;4975998;28;38095;-80
2024/04/07 03:17:48;;;;;;;3.05;0.70;;;14.50;40.40;;;;;;4968879;28;37818;-81
2024/04/07 03:20:15;;;;;;;3.40;0.90;;;14.40;19.40;;;;;;4977698;28;38630;-80
2024/04/07 03:22:45;;;;;;;3.80;0.80;;;14.50;11.50;;;;;;4977478;28;38583;-79
2024/04/07 03:25:19;;;;;;;2.28;0.60;;;14.50;10.10;;;;;;4970320;28;37996;-80
2024/04/07 03:27:46;;;;;;;3.20;0.60;;;14.50;9.80;;;;;;4976549;28;36417;-80
2024/04/07 03:30:17;;;;;;;3.47;0.80;;;14.60;1.50;;;;;;4972707;28;37028;-80
2024/04/07 03:32:44;;;;;;;3.40;0.70;;;14.50;5.70;;;;;;4975683;28;38575;-80
2024/04/07 03:35:12;;;;;;;2.40;0.80;;;14.60;3.90;;;;;;4971707;28;38134;-80
2024/04/07 03:37:40;;;;;;;1.67;0.70;;;14.50;2.50;;;;;;4974030;28;36997;-80
2024/04/07 03:40:07;;;;;;;3.20;0.80;;;14.60;1.00;;;;;;4978971;28;37565;-80
2024/04/07 03:42:33;;;;;;;1.55;0.40;;;14.70;1.00;;;;;;4984214;28;35882;-80
2024/04/07 03:44:59;;;;;;;1.25;0.52;;;14.70;1.00;;;;;;4975123;28;36791;-80
2024/04/07 03:47:25;;;;;;;1.95;0.50;;;14.60;1.00;;;;;;4968525;28;38655;-79
2024/04/07 03:49:51;;;;;;;2.28;0.60;;;14.70;1.00;;;;;;4967522;28;39867;-80
2024/04/07 03:52:20;;;;;;;2.17;0.60;;;14.70;1.00;;;;;;4970749;28;38517;-80
2024/04/07 03:54:48;;;;;;;2.03;0.70;;;14.70;1.00;;;;;;4967113;28;37680;-80
2024/04/07 03:57:14;;;;;;;4.18;0.82;;;14.70;1.00;;;;;;4972863;28;36366;-80
2024/04/07 03:59:40;;;;;;;3.75;0.68;;;14.60;1.00;;;;;;4974135;28;38143;-81
2024/04/07 04:02:08;;;;;;;2.70;0.80;;;14.60;1.00;;;;;;4964050;28;37307;-78
2024/04/07 04:04:34;;;;;;;2.13;0.77;;;14.60;1.00;;;;;;4976417;28;37039;-80
2024/04/07 04:07:04;;;;;;;3.42;0.52;;;14.50;1.00;;;;;;4974407;28;36219;-81
2024/04/07 04:09:30;;;;;;;2.58;0.63;;;14.60;1.00;;;;;;4973192;28;46775;-80
2024/04/07 04:11:56;;;;;;;7.10;0.70;;;14.50;1.00;;;;;;4967970;28;38295;-79
2024/04/07 04:14:22;;;;;;;1.60;0.60;;;14.50;1.00;;;;;;4973651;28;38425;-80
2024/04/07 04:16:48;;;;;;;3.60;0.70;;;14.50;1.00;;;;;;4962776;28;36097;-80
2024/04/07 04:19:20;;;;;;;3.40;0.93;;;14.40;1.00;;;;;;4975142;28;37684;-81
2024/04/07 04:21:46;;;;;;;3.22;1.13;;;14.30;19.10;;;;;;4966924;28;37368;-81
2024/04/07 04:24:13;;;;;;;4.05;0.80;;;14.00;32.70;;;;;;4980281;28;39464;-80
2024/04/07 04:26:39;;;;;;;2.05;0.60;;;14.00;28.00;;;;;;4980645;28;37471;-79
2024/04/07 04:29:05;;;;;;;4.20;1.10;;;14.00;20.00;;;;;;4976846;28;38968;-80
2024/04/07 04:31:32;;;;;;;3.15;0.80;;;13.90;20.20;;;;;;4980350;28;37213;-80
2024/04/07 04:34:03;;;;;;;3.53;0.95;;;13.90;17.60;;;;;;4979791;28;38021;-80
2024/04/07 04:36:31;;;;;;;2.50;0.70;;;14.10;3.40;;;;;;4982726;28;48234;-81
2024/04/07 04:38:57;;;;;;;4.00;0.80;;;14.20;1.00;;;;;;4975051;28;37450;-80
2024/04/07 04:41:34;;;;;;;3.22;0.70;;;14.20;2.80;;;;;;4978217;28;39417;-80
2024/04/07 04:44:04;;;;;;;2.72;0.60;;;14.10;12.00;;;;;;4977660;28;37881;-81
2024/04/07 04:46:32;;;;;;;3.47;0.75;;;14.10;8.20;;;;;;4967138;28;48554;-81
2024/04/07 04:49:11;;;;;;;2.28;0.70;;;14.10;9.30;;;;;;4977623;28;38972;-81
2024/04/07 04:51:37;;;;;;;4.47;1.10;;;14.10;12.90;;;;;;4974746;28;48236;-80
2024/04/07 04:54:04;;;;;;;6.22;1.17;;;14.10;12.20;;;;;;4978245;28;38056;-80
2024/04/07 04:56:37;;;;;;;5.43;1.02;;;14.20;12.80;;;;;;4977073;28;36651;-81
2024/04/07 04:59:04;;;;;;;2.20;0.63;;;14.20;8.60;;;;;;4977287;28;38500;-80
2024/04/07 05:02:05;;;;;;;2.63;0.85;;;14.30;6.90;;;;;;4971731;28;38546;-81
2024/04/07 05:04:33;;;;;;;2.90;0.60;;;14.30;11.00;;;;;;5194469;23;46920;-80
2024/04/07 05:06:59;;;;;;;3.72;1.00;;;14.30;11.10;;;;;;4977476;28;38819;-79
2024/04/07 05:09:26;;;;;;;2.10;0.60;;;14.30;9.00;;;;;;4968534;28;40216;-79
2024/04/07 05:12:03;;;;;;;2.67;0.60;;;14.20;9.50;;;;;;4976996;28;41229;-79
2024/04/07 05:14:38;;;;;;;2.00;0.65;;;14.20;18.40;;;;;;4974314;28;47826;-80
2024/04/07 05:17:17;;;;;;;3.25;0.88;;;14.20;20.20;;;;;;4983223;28;38244;-80
2024/04/07 05:19:43;;;;;;;5.95;1.08;;;14.10;24.90;;;;;;4990414;23;38662;-79
2024/04/07 05:22:09;;;;;;;6.07;1.33;;;14.10;25.10;;;;;;4976582;28;39558;-80
2024/04/07 05:24:35;;;;;;;5.28;1.00;;;14.10;25.50;;;;;;4978022;28;36750;-80
2024/04/07 05:27:04;;;;;;;1.98;0.90;;;14.00;29.10;;;;;;4971089;28;37430;-79
2024/04/07 05:29:31;;;;;;;4.00;1.02;;;14.00;29.00;;;;;;4980883;28;48142;-80
2024/04/07 05:32:03;;;;;;;5.47;1.33;;;14.00;31.60;;;;;;4985363;28;38529;-81
2024/04/07 05:34:37;;;;;;;4.18;0.80;;;14.00;35.50;;;;;;4970014;28;48050;-79
2024/04/07 05:37:04;;;;;;;7.35;0.93;;;13.90;36.80;;;;;;5002449;23;36258;-80
2024/04/07 05:39:30;;;;;;;2.72;0.90;;;13.90;35.00;;;;;;5012758;28;38670;-80
2024/04/07 05:41:57;;;;;;;2.75;0.90;;;13.90;35.00;;;;;;5017557;28;37322;-79
2024/04/07 05:44:23;;;;;;;3.72;1.55;;;13.90;39.00;;;;;;5016916;28;38180;-80
2024/04/07 05:46:51;;;;;;;3.13;0.90;;;13.90;38.60;;;;;;5018027;28;37098;-81
2024/04/07 05:49:19;;;;;;;4.63;1.10;;;13.90;38.30;;;;;;5012461;28;40244;-80
2024/04/07 05:51:45;;;;;;;3.90;1.40;;;13.90;43.00;;;;;;5019188;28;37707;-82
2024/04/07 05:54:20;;;;;;;5.43;1.00;;;13.90;44.70;;;;;;5018635;28;39617;-80
2024/04/07 05:56:49;;;;;;;6.13;1.10;;;14.00;45.60;;;;;;5016751;28;38610;-80
2024/04/07 05:59:26;;;;;;;6.32;1.00;;;13.90;44.80;;;;;;5020003;28;40105;-81
2024/04/07 06:01:53;;;;;;;3.90;1.13;;;13.90;45.70;;;;;;5021298;28;38332;-81
2024/04/07 06:04:34;;;;;;;3.28;1.13;;;14.10;45.40;;;;;;5016745;28;38276;-82
2024/04/07 06:07:01;;;;;;;5.82;0.90;;;14.10;37.80;;;;;;5017726;28;35611;-81
2024/04/07 06:09:35;;;;;;;3.40;0.93;;;14.10;36.00;;;;;;5017357;28;40534;-80
2024/04/07 06:12:28;;;;;;;3.13;1.13;;;14.20;37.20;;;;;;5017471;28;38946;-79
2024/04/07 06:14:56;;;;;;;3.80;1.50;;;14.20;40.20;;;;;;5562424;23;38445;-80
2024/04/07 06:17:26;;;;;;;3.95;1.40;;;14.10;40.20;;;;;;4969898;28;37326;-81
2024/04/07 06:22:34;;;;;;;5.22;1.20;;;14.20;43.10;;;;;;5150047;23;20047;-80
2024/04/07 06:25:00;;;;;;;4.50;1.10;;;14.20;40.00;;;;;;4966733;28;39635;-79
2024/04/07 06:27:33;;;;;;;4.60;1.13;;;14.20;44.40;;;;;;4965840;28;20114;-79
2024/04/07 06:30:18;;;;;;;2.95;1.00;;;14.20;44.70;;;;;;4957254;28;40075;-80
2024/04/07 06:32:50;;;;;;;5.10;1.10;;;14.20;40.60;;;;;;4942457;28;48561;-79
2024/04/07 06:35:48;;;;;;;5.82;1.60;;;14.30;42.00;;;;;;4941261;28;38468;-80
2024/04/07 06:38:38;;;;;;;4.68;1.08;;;14.30;41.40;;;;;;4939255;28;38371;-79
2024/04/07 06:41:04;;;;;;;3.05;1.13;;;14.50;35.00;;;;;;5326554;23;39326;-81
2024/04/07 06:43:34;;;;;;;9.15;1.48;;;14.60;31.40;;;;;;4993469;28;38703;-81
2024/04/07 06:46:00;;;;;;;4.65;1.40;;;14.70;28.20;;;;;;4997837;28;38229;-80
2024/04/07 06:48:26;;;;;;;3.53;1.20;;;14.70;22.10;;;;;;4992842;28;36247;-81
2024/04/07 06:50:52;;;;;;;3.13;0.95;;;14.70;22.30;;;;;;4993193;28;39051;-81
2024/04/07 06:53:19;;;;;;;4.07;0.90;;;14.70;21.50;;;;;;4992467;28;41416;-80
2024/04/07 06:55:45;;;;;;;5.03;1.30;;;14.80;22.10;;;;;;4987240;28;38756;-79
2024/04/07 06:58:15;;;;;;;3.45;1.30;;;14.80;19.10;;;;;;4981217;28;37335;-81
2024/04/07 07:00:41;;;;;;;6.70;1.45;;;14.80;16.00;;;;;;4985823;28;38161;-79
2024/04/07 07:03:07;;;;;;;5.03;1.00;;;14.80;17.00;;;;;;4979350;28;38578;-78
2024/04/07 07:05:34;;;;;;;6.22;1.35;;;14.80;21.60;;;;;;4990664;28;37793;-78
2024/04/07 07:08:00;;;;;;;3.75;1.30;;;14.90;23.20;;;;;;4985020;28;35859;-81
2024/04/07 07:10:26;;;;;;;7.47;1.63;;;15.00;17.10;;;;;;4986890;28;48797;-79
2024/04/07 07:12:53;;;;;;;7.15;1.63;;;15.20;10.70;;;;;;4998057;28;38851;-81
2024/04/07 07:15:19;;;;;;;5.65;1.25;;;15.20;1.00;;;;;;4977049;28;38239;-80
2024/04/07 07:18:02;;;;;;;3.63;1.38;;;15.20;3.60;;;;;;4989551;28;36947;-81
2024/04/07 07:20:30;;;;;;;;;;;15.20;9.20;;;;;;5014456;28;47243;-79
2024/04/07 07:23:01;;;;;;;6.45;1.30;;;15.20;1.70;;;;;;4987278;28;39015;-80
2024/04/07 07:25:28;;;;;;;3.78;1.30;;;15.30;2.90;;;;;;4999561;28;48135;-80
2024/04/07 07:27:59;;;;;;;8.00;1.58;;;15.30;1.00;;;;;;4989083;28;37368;-80
2024/04/07 07:30:25;;;;;;;9.63;1.58;;;15.30;1.00;;;;;;4980870;28;38961;-80
2024/04/07 07:32:52;;;;;;;1.80;1.00;;;15.30;1.00;;;;;;5008389;28;37460;-81
2024/04/07 07:35:18;;;;;;;5.97;1.20;;;15.40;1.00;;;;;;4977784;28;37073;-81
2024/04/07 07:37:44;;;;;;;6.43;1.30;;;15.40;1.00;;;;;;4990980;28;36568;-80
2024/04/07 07:40:16;;;;;;;7.43;1.50;;;15.50;1.00;;;;;;4980811;28;37954;-81
2024/04/07 07:42:42;;;;;;;2.67;1.05;;;15.50;1.00;;;;;;4984085;28;38761;-80
2024/04/07 07:45:09;;;;;;;8.40;1.20;;;15.60;1.00;;;;;;4974751;28;37846;-79
2024/04/07 07:47:35;;;;;;;4.97;1.50;;;15.60;1.00;;;;;;4961803;28;36050;-80
2024/04/07 07:50:02;;;;;;;4.68;1.08;;;15.60;1.00;;;;;;4956634;28;40508;-80
2024/04/07 07:52:29;;;;;;;7.07;1.55;;;15.70;1.00;;;;;;4959612;28;38609;-80
2024/04/07 07:54:55;;;;;;;4.40;1.23;;;15.80;1.00;;;;;;4960855;28;36852;-80
2024/04/07 07:57:23;;;;;;;4.10;1.27;;;15.80;1.00;;;;;;4967847;28;40151;-79
2024/04/07 07:59:49;;;;;;;4.60;1.08;;;15.80;1.00;;;;;;4968416;28;38015;-77
2024/04/07 08:02:16;;;;;;;9.02;1.80;;;15.90;1.00;;;;;;4958624;28;39651;-77
2024/04/07 08:04:42;;;;;;;4.85;1.30;;;15.90;1.00;;;;;;4994572;28;38536;-78
2024/04/07 08:07:08;;;;;;;6.65;1.30;;;16.00;1.00;;;;;;4954671;28;37503;-79
2024/04/07 08:09:34;;;;;;;3.38;1.00;;;16.10;1.00;;;;;;4957883;28;39399;-79
2024/04/07 08:12:01;;;;;;;4.28;1.13;;;16.20;1.00;;;;;;4966561;28;37506;-78
2024/04/07 08:14:27;;;;;;;5.32;0.90;;;16.30;1.00;;;;;;4973672;28;47681;-80
2024/04/07 08:16:53;;;;;;;3.47;1.08;;;16.40;1.00;;;;;;4969514;28;36616;-82
2024/04/07 08:19:19;;;;;;;6.72;1.40;;;16.40;1.00;;;;;;4964666;28;38368;-82
2024/04/07 08:21:45;;;;;;;3.70;1.10;;;16.40;1.00;;;;;;4965217;28;38423;-82
2024/04/07 08:24:11;;;;;;;4.80;1.50;;;16.40;1.00;;;;;;4960890;28;38530;-80
2024/04/07 08:26:38;;;;;;;4.82;1.27;;;16.50;1.00;;;;;;4966221;28;36168;-82
2024/04/07 08:29:04;;;;;;;5.47;1.20;;;16.60;1.00;;;;;;4963496;28;39113;-80
2024/04/07 08:31:30;;;;;;;3.63;1.05;;;16.60;1.00;;;;;;4959873;28;39441;-79
2024/04/07 08:33:56;;;;;;;3.35;0.90;;;16.80;1.00;;;;;;4955248;28;37068;-81
2024/04/07 08:36:23;;;;;;;6.18;1.30;;;16.80;1.00;;;;;;4956390;28;36016;-85
2024/04/07 08:38:49;;;;;;;4.88;1.02;;;16.80;1.00;;;;;;4959292;28;40413;-80
2024/04/07 08:41:16;;;;;;;5.60;1.40;;;16.90;1.00;;;;;;4962480;28;38596;-80
2024/04/07 08:43:47;;;;;;;7.15;1.50;;;17.00;1.00;;;;;;4963217;28;38787;-83
2024/04/07 08:46:14;;;;;;;5.10;1.40;;;17.10;1.00;;;;;;4961990;28;36955;-81
2024/04/07 08:48:42;;;;;;;4.55;1.13;;;17.40;1.00;;;;;;4965871;28;39669;-81
2024/04/07 08:51:10;;;;;;;3.10;1.02;;;17.30;1.00;;;;;;4959899;28;38383;-80
2024/04/07 08:53:41;;;;;;;5.18;1.00;;;17.50;1.00;;;;;;4962753;28;38164;-83
2024/04/07 08:56:08;;;;;;;5.95;1.30;;;17.80;1.00;;;;;;4956546;28;36582;-80
2024/04/07 08:58:35;;;;;;;5.50;1.63;;;17.90;99.90;;;;;;4959799;28;39077;-81
2024/04/07 09:01:02;;;;;;;8.60;1.20;;;18.00;1.00;;;;;;4963600;28;39670;-81
2024/04/07 09:03:29;;;;;;;4.88;1.35;;;18.10;99.90;;;;;;4953362;28;38744;-83
2024/04/07 09:05:57;;;;;;;7.10;1.27;;;17.90;99.90;;;;;;4963079;28;38150;-84
2024/04/07 09:08:24;;;;;;;4.95;1.30;;;17.90;99.90;;;;;;4953952;28;37407;-84
2024/04/07 09:10:50;;;;;;;3.33;0.80;;;18.10;1.00;;;;;;4957180;28;38050;-84
2024/04/07 09:13:17;;;;;;;4.07;1.00;;;18.10;99.90;;;;;;4970304;28;38948;-82
2024/04/07 09:15:43;;;;;;;4.88;1.25;;;18.10;99.90;;;;;;4931318;28;36134;-84
2024/04/07 09:18:13;;;;;;;5.78;1.67;;;18.10;1.00;;;;;;4939625;28;39107;-83
2024/04/07 09:20:39;;;;;;;4.88;0.90;;;18.20;35.90;;;;;;4972233;28;40294;-83
2024/04/07 09:23:06;;;;;;;4.38;1.17;;;18.00;1.00;;;;;;4932889;28;38364;-83
2024/04/07 09:25:32;;;;;;;5.22;1.00;;;18.20;99.90;;;;;;4943711;28;35469;-84
2024/04/07 09:27:58;;;;;;;3.30;1.08;;;18.20;1.00;;;;;;4945591;28;39606;-82
2024/04/07 09:30:25;;;;;;;4.07;1.10;;;18.30;1.00;;;;;;4948960;28;37340;-84
2024/04/07 09:32:51;;;;;;;3.88;1.08;;;18.30;1.00;;;;;;4947824;28;36886;-86
2024/04/07 09:35:20;;;;;;;8.45;1.38;;;18.30;1.00;;;;;;4953308;28;36485;-83
2024/04/07 09:37:47;;;;;;;4.72;1.10;;;18.40;1.00;;;;;;4960523;28;38290;-82
2024/04/07 09:40:13;;;;;;;2.17;0.90;;;18.60;43.60;;;;;;4953763;28;38621;-82
2024/04/07 09:42:40;;;;;;;18.75;1.75;;;18.60;1.00;;;;;;4954810;28;37310;-87
2024/04/07 09:45:08;;;;;;;7.05;1.48;;;18.70;99.90;;;;;;4955349;28;39288;-80
2024/04/07 09:47:43;;;;;;;5.05;1.27;;;18.70;99.90;;;;;;4958861;28;39136;-80
2024/04/07 09:50:25;;;;;;;6.70;1.38;;;18.70;1.00;;;;;;4956666;28;39118;-81
2024/04/07 09:52:57;;;;;;;6.82;1.10;;;18.90;1.00;;;;;;4954518;28;38781;-81
2024/04/07 09:55:27;;;;;;;5.63;1.23;;;18.60;7.60;;;;;;4960576;28;39715;-82
2024/04/07 09:57:53;;;;;;;4.93;1.00;;;18.60;1.00;;;;;;4953436;28;39890;-80
2024/04/07 10:00:20;;;;;;;3.95;0.95;;;18.80;99.90;;;;;;4955526;28;39361;-79
2024/04/07 10:02:46;;;;;;;3.00;1.02;;;18.80;1.00;;;;;;4959010;28;39723;-83
2024/04/07 10:05:13;;;;;;;7.18;1.10;;;18.60;1.00;;;;;;4952240;28;37776;-83
2024/04/07 10:07:40;;;;;;;5.00;0.90;;;18.80;1.00;;;;;;4960598;28;38131;-81
2024/04/07 10:10:08;;;;;;;5.15;0.98;;;18.80;99.90;;;;;;4957651;28;38362;-83
2024/04/07 10:12:34;;;;;;;4.88;0.90;;;19.00;1.00;;;;;;4954646;28;48690;-82
2024/04/07 10:15:00;;;;;;;2.63;0.80;;;19.10;1.00;;;;;;4955000;28;38394;-85
2024/04/07 10:17:30;;;;;;;4.40;1.08;;;19.10;99.90;;;;;;4965442;28;39488;-81
2024/04/07 10:19:58;;;;;;;3.60;0.80;;;19.20;1.00;;;;;;4964541;28;39453;-81
2024/04/07 10:22:26;;;;;;;5.57;0.80;;;19.30;1.00;;;;;;4958742;28;38897;-80
2024/04/07 10:24:53;;;;;;;4.55;0.90;;;19.40;99.90;;;;;;4961776;28;37440;-83
2024/04/07 10:27:25;;;;;;;2.50;0.50;;;19.60;1.00;;;;;;4954943;28;38722;-81
2024/04/07 10:29:56;;;;;;;2.75;0.75;;;19.70;1.00;;;;;;4968455;28;39991;-79
2024/04/07 10:32:30;;;;;;;2.22;0.80;;;19.60;1.00;;;;;;4971300;28;38835;-80
2024/04/07 10:35:08;;;;;;;2.83;0.85;;;19.80;1.00;;;;;;4958566;28;37329;-81
2024/04/07 10:37:37;;;;;;;6.10;0.88;;;19.80;92.10;;;;;;4962282;28;47348;-81
2024/04/07 10:40:05;;;;;;;6.53;1.23;;;20.00;99.90;;;;;;4963858;28;39799;-79
2024/04/07 10:42:33;;;;;;;3.03;0.75;;;20.00;1.00;;;;;;4967987;28;49100;-81
2024/04/07 10:45:01;;;;;;;4.28;1.10;;;20.00;99.90;;;;;;4960332;28;37076;-81
2024/04/07 10:47:29;;;;;;;4.38;0.98;;;19.80;1.00;;;;;;4958160;28;39628;-81
2024/04/07 10:49:56;;;;;;;4.88;1.27;;;20.00;99.90;;;;;;4968494;28;39063;-81
2024/04/07 10:52:26;;;;;;;3.42;0.90;;;20.00;1.00;;;;;;4962183;28;37667;-79
2024/04/07 10:54:59;;;;;;;1.95;0.70;;;19.70;1.00;;;;;;4969036;28;38760;-83
2024/04/07 10:57:25;;;;;;;3.67;1.00;;;19.80;91.30;;;;;;4980261;28;40336;-82
2024/04/07 10:59:52;;;;;;;3.15;0.80;;;19.60;47.30;;;;;;4969449;28;39325;-82
2024/04/07 11:02:18;;;;;;;3.63;0.80;;;19.60;1.00;;;;;;4963616;28;38817;-81
2024/04/07 11:04:45;;;;;;;5.15;0.77;;;19.70;1.00;;;;;;4995617;28;37641;-82
2024/04/07 11:07:15;;;;;;;2.65;0.65;;;19.90;1.00;;;;;;4962794;28;39997;-81
2024/04/07 11:09:41;;;;;;;7.97;1.45;;;20.20;1.00;;;;;;4967464;28;39847;-81
2024/04/07 11:12:09;;;;;;;3.90;1.00;;;20.20;1.00;;;;;;4962293;28;39347;-81
2024/04/07 11:14:36;;;;;;;4.38;0.73;;;20.30;1.00;;;;;;4967991;28;38960;-80
2024/04/07 11:17:04;;;;;;;4.00;0.95;;;20.30;1.00;;;;;;4964795;28;38548;-82
2024/04/07 11:19:34;;;;;;;3.30;0.80;;;20.40;1.00;;;;;;4960142;28;47188;-81
2024/04/07 11:22:02;;;;;;;4.60;1.15;;;20.50;1.00;;;;;;4971029;28;37992;-81
2024/04/07 11:24:28;;;;;;;2.97;1.05;;;20.40;10.20;;;;;;4975277;28;48492;-81
2024/04/07 11:26:55;;;;;;;5.32;1.00;;;20.50;1.00;;;;;;4992449;28;41579;-80
2024/04/07 11:29:21;;;;;;;6.85;1.20;;;20.60;1.00;;;;;;4973889;28;38222;-80
2024/04/07 11:31:55;;;;;;;3.45;1.10;;;20.80;81.90;;;;;;4967059;28;39180;-81
2024/04/07 11:34:22;;;;;;;3.75;0.80;;;20.80;1.00;;;;;;4972158;28;37437;-80
2024/04/07 11:36:48;;;;;;;4.03;1.10;;;21.10;83.80;;;;;;4964597;28;37772;-80
2024/04/07 11:39:16;;;;;;;3.35;1.13;;;20.90;13.30;;;;;;4966283;28;40177;-80
2024/04/07 11:41:43;;;;;;;2.63;0.90;;;20.90;1.00;;;;;;4968164;28;39389;-82
2024/04/07 11:44:09;;;;;;;3.80;1.02;;;20.80;1.00;;;;;;4967952;28;37688;-79
2024/04/07 11:46:36;;;;;;;3.10;0.88;;;20.60;1.00;;;;;;4963464;28;39597;-81
2024/04/07 11:49:02;;;;;;;2.20;0.90;;;20.50;1.00;;;;;;4974385;28;39595;-83
2024/04/07 11:51:31;;;;;;;3.45;1.00;;;20.60;99.90;;;;;;4957391;28;38200;-81
2024/04/07 11:53:58;;;;;;;2.72;0.93;;;20.90;1.00;;;;;;4966264;28;37980;-81
2024/04/07 11:56:24;;;;;;;2.92;1.02;;;20.70;1.00;;;;;;4968586;28;39334;-83
2024/04/07 11:58:50;;;;;;;2.22;0.68;;;20.80;1.00;;;;;;4971819;28;39097;-80
2024/04/07 12:01:16;;;;;;;2.65;0.60;;;21.10;1.00;;;;;;4968963;28;37149;-82
2024/04/07 12:03:44;;;;;;;3.28;0.90;;;21.40;1.00;;;;;;4966927;28;38389;-79
2024/04/07 12:06:10;;;;;;;4.68;1.20;;;21.30;1.00;;;;;;4976599;28;39695;-82
2024/04/07 12:08:37;;;;;;;1.77;0.80;;;21.40;1.00;;;;;;4970297;28;37258;-82
2024/04/07 12:11:03;;;;;;;2.97;1.00;;;21.60;1.00;;;;;;4960768;28;39488;-82
2024/04/07 12:13:29;;;;;;;3.05;0.80;;;21.40;1.00;;;;;;4976010;28;36334;-80
2024/04/07 12:15:55;;;;;;;4.68;0.90;;;21.40;1.00;;;;;;4963838;28;39575;-81
2024/04/07 12:18:21;;;;;;;3.70;0.70;;;21.20;1.00;;;;;;4961714;28;38670;-82
2024/04/07 12:20:48;;;;;;;4.22;0.93;;;20.90;1.00;;;;;;4963012;28;36959;-83
2024/04/07 12:23:14;;;;;;;4.45;0.90;;;20.50;1.00;;;;;;4962096;28;37505;-83
2024/04/07 12:25:40;;;;;;;4.68;0.63;;;20.30;1.00;;;;;;4975468;28;38470;-83
2024/04/07 12:28:06;;;;;;;2.60;0.70;;;20.60;1.00;;;;;;4974897;28;38986;-84
2024/04/07 12:30:32;;;;;;;5.35;1.38;;;21.10;1.00;;;;;;4957949;28;39569;-82
2024/04/07 12:32:58;;;;;;;5.63;0.93;;;21.40;1.00;;;;;;4965800;28;37739;-81
2024/04/07 12:35:25;;;;;;;3.67;0.90;;;21.30;99.90;;;;;;4996224;28;39782;-81
2024/04/07 12:37:51;;;;;;;4.97;0.90;;;21.10;99.90;;;;;;4968452;28;38329;-82
2024/04/07 12:40:17;;;;;;;2.55;0.80;;;21.10;1.00;;;;;;4961847;28;38233;-84
2024/04/07 12:42:44;;;;;;;5.60;0.77;;;20.90;99.90;;;;;;4966134;28;37518;-81
2024/04/07 12:45:11;;;;;;;2.90;0.73;;;20.80;99.90;;;;;;5001428;28;39281;-82
2024/04/07 12:47:37;;;;;;;3.72;0.70;;;20.80;99.90;;;;;;4968622;28;39683;-82
2024/04/07 12:50:05;;;;;;;2.13;0.60;;;20.80;99.90;;;;;;4959300;28;35843;-81
2024/04/07 12:52:37;;;;;;;2.55;0.65;;;21.00;1.00;;;;;;4963031;28;48800;-83
2024/04/07 12:55:03;;;;;;;3.50;1.00;;;20.50;99.90;;;;;;4968198;28;39737;-84
2024/04/07 12:57:31;;;;;;;2.78;0.80;;;20.10;1.00;;;;;;4957459;28;39309;-82
2024/04/07 13:00:05;;;;;;;2.28;0.65;;;20.10;1.00;;;;;;4963322;28;39408;-84
2024/04/07 13:02:32;;;;;;;4.10;0.90;;;20.00;1.00;;;;;;4967058;28;37521;-84
2024/04/07 13:04:58;;;;;;;6.25;1.25;;;19.90;1.00;;;;;;4963317;28;37592;-85
2024/04/07 13:07:25;;;;;;;2.17;0.73;;;19.90;1.00;;;;;;4960008;28;39097;-83
2024/04/07 13:09:52;;;;;;;3.08;0.80;;;20.10;1.00;;;;;;4968331;28;39504;-83
2024/04/07 13:12:18;;;;;;;3.17;0.77;;;20.40;1.00;;;;;;4962861;28;37529;-82
2024/04/07 13:14:44;;;;;;;3.55;0.60;;;20.50;1.00;;;;;;4964436;28;39463;-83
2024/04/07 13:17:11;;;;;;;7.07;1.30;;;20.70;1.00;;;;;;4957072;28;37596;-82
2024/04/07 13:19:39;;;;;;;2.05;0.52;;;20.60;1.00;;;;;;4970027;28;37978;-83
2024/04/07 13:22:08;;;;;;;2.90;0.80;;;20.60;1.00;;;;;;4957195;28;37913;-81
2024/04/07 13:24:34;;;;;;;5.03;1.13;;;20.60;1.00;;;;;;4960835;28;37779;-81
2024/04/07 13:27:00;;;;;;;2.72;0.85;;;20.90;1.00;;;;;;4963383;28;37569;-81
2024/04/07 13:29:27;;;;;;;2.97;0.77;;;21.00;1.00;;;;;;4953337;28;40466;-82
2024/04/07 13:31:53;;;;;;;3.60;0.88;;;20.80;1.00;;;;;;4992864;28;38667;-82
2024/04/07 13:34:19;;;;;;;4.05;0.80;;;20.80;1.00;;;;;;4959258;28;40442;-82
2024/04/07 13:36:46;;;;;;;1.90;0.63;;;20.90;99.90;;;;;;4960386;28;38520;-82
2024/04/07 13:39:13;;;;;;;3.58;0.88;;;21.00;99.90;;;;;;4948997;28;37035;-82
2024/04/07 13:41:39;;;;;;;2.78;0.65;;;21.20;99.90;;;;;;4961451;28;37428;-82
2024/04/07 13:44:05;;;;;;;5.50;0.80;;;21.50;99.90;;;;;;4959926;28;38956;-82
2024/04/07 13:46:32;;;;;;;1.52;0.40;;;21.70;99.90;;;;;;4962942;28;40239;-82
2024/04/07 13:48:58;;;;;;;3.85;1.05;;;21.60;99.90;;;;;;4967080;28;37907;-82
2024/04/07 13:51:28;;;;;;;2.00;0.73;;;21.70;99.90;;;;;;4958917;28;38584;-82
2024/04/07 13:53:54;;;;;;;3.22;0.68;;;21.70;99.90;;;;;;4979465;28;37464;-82
2024/04/07 13:56:20;;;;;;;3.15;0.75;;;21.80;99.90;;;;;;4967705;28;38346;-84
2024/04/07 13:58:46;;;;;;;4.53;0.77;;;21.80;99.90;;;;;;4969929;28;37907;-82
2024/04/07 14:01:12;;;;;;;1.67;0.65;;;21.80;99.90;;;;;;4967801;28;36342;-82
2024/04/07 14:03:39;;;;;;;5.47;0.70;;;21.40;99.90;;;;;;4965309;28;37828;-83
2024/04/07 14:06:05;;;;;;;3.20;0.90;;;21.10;99.90;;;;;;4963300;28;38009;-82
2024/04/07 14:08:32;;;;;;;4.55;1.10;;;20.80;99.90;;;;;;4985670;28;39463;-84
2024/04/07 14:10:58;;;;;;;2.92;0.85;;;20.60;99.90;;;;;;4978462;28;38757;-83
2024/04/07 14:13:24;;;;;;;2.85;0.70;;;20.70;99.90;;;;;;4977371;28;38846;-83
2024/04/07 14:15:51;;;;;;;1.63;0.50;;;20.70;99.90;;;;;;4961399;28;39586;-83
2024/04/07 14:18:17;;;;;;;3.60;0.98;;;20.50;99.90;;;;;;4960220;28;38948;-83
2024/04/07 14:20:44;;;;;;;2.88;0.50;;;20.60;99.90;;;;;;4966211;28;38647;-84
2024/04/07 14:23:11;;;;;;;1.33;0.50;;;20.50;99.90;;;;;;4970098;28;39327;-83